Time;durP1;ratioP1;P1;durP2;ratioP2;P2;SDS_P1;SDS_P2;PMS_P1;PMS_P2;Temp;Humidity;BMP_temperature;BMP_pressure;BME280_temperature;BME280_humidity;BME280_pressure;Samples;Min_cycle;Max_cycle;Signal;HPM_P1;HPM_P2
2024/04/18 00:01:15;;;;;;;3.47;2.00;;;;;;;6.63;100.00;95631.22;5354027;26;20232;-75
2024/04/18 00:03:43;;;;;;;4.87;2.27;;;;;;;6.49;100.00;95630.09;5363090;26;20278;-76
2024/04/18 00:06:08;;;;;;;4.53;2.50;;;;;;;6.67;100.00;95626.28;5357893;26;20223;-73
2024/04/18 00:08:37;;;;;;;3.20;2.03;;;;;;;6.72;100.00;95628.38;5363072;26;20224;-74
2024/04/18 00:11:02;;;;;;;3.03;2.33;;;;;;;6.54;100.00;95625.16;5363606;26;20345;-76
2024/04/18 00:13:30;;;;;;;3.30;2.20;;;;;;;6.64;100.00;95625.00;5360675;26;20239;-75
2024/04/18 00:15:59;;;;;;;3.27;2.27;;;;;;;6.61;100.00;95626.16;5359435;26;20243;-73
2024/04/18 00:18:27;;;;;;;3.63;1.77;;;;;;;6.45;100.00;95628.78;5360571;26;20286;-75
2024/04/18 00:20:52;;;;;;;3.43;1.87;;;;;;;6.55;100.00;95629.41;5355270;26;20260;-72
2024/04/18 00:23:20;;;;;;;5.80;2.00;;;;;;;6.58;100.00;95629.09;5358982;26;20240;-73
2024/04/18 00:25:46;;;;;;;2.63;1.70;;;;;;;6.59;100.00;95630.72;5356138;26;20240;-72
2024/04/18 00:28:14;;;;;;;4.03;2.23;;;;;;;6.45;100.00;95625.34;5358744;26;20278;-77
2024/04/18 00:30:41;;;;;;;3.97;1.87;;;;;;;6.74;100.00;95624.63;5357541;26;20271;-75
2024/04/18 00:33:12;;;;;;;3.47;2.10;;;;;;;6.74;100.00;95632.47;5347631;26;20688;-76
2024/04/18 00:35:37;;;;;;;3.50;2.00;;;;;;;6.77;100.00;95626.09;5359626;26;20275;-76
2024/04/18 00:38:06;;;;;;;2.83;2.07;;;;;;;6.55;100.00;95631.22;5354702;26;20243;-76
2024/04/18 00:40:31;;;;;;;2.90;1.97;;;;;;;6.38;100.00;95633.06;5344995;26;20794;-76
2024/04/18 00:43:02;;;;;;;3.53;1.93;;;;;;;6.54;100.00;95630.41;5339863;26;20302;-74
2024/04/18 00:45:28;;;;;;;4.27;2.33;;;;;;;6.43;100.00;95630.75;5346919;26;20485;-76
2024/04/18 00:47:56;;;;;;;4.17;2.67;;;;;;;6.55;100.00;95621.56;5340173;26;20334;-76
2024/04/18 00:50:25;;;;;;;4.17;2.53;;;;;;;6.79;100.00;95619.69;5361736;26;20267;-77
2024/04/18 00:52:54;;;;;;;4.30;2.07;;;;;;;6.67;100.00;95622.88;5358257;26;20236;-76
2024/04/18 00:55:20;;;;;;;3.00;2.17;;;;;;;6.76;100.00;95635.75;5363277;26;20337;-74
2024/04/18 00:57:49;;;;;;;5.47;2.70;;;;;;;6.72;100.00;95628.38;5357175;26;20240;-74
2024/04/18 01:00:15;;;;;;;3.50;2.17;;;;;;;6.76;100.00;95627.09;5362887;26;20239;-76
2024/04/18 01:06:08;;;;;;;5.33;2.00;;;;;;;6.76;100.00;95629.72;5339845;26;21335;-75
2024/04/18 01:08:34;;;;;;;2.90;1.70;;;;;;;6.70;100.00;95630.38;5361971;26;20401;-72
2024/04/18 01:11:02;;;;;;;5.33;2.27;;;;;;;6.56;100.00;95633.69;5362861;26;20640;-77
2024/04/18 01:13:35;;;;;;;4.57;2.20;;;;;;;6.77;100.00;95631.31;5362713;26;20243;-76
2024/04/18 01:16:03;;;;;;;3.60;2.30;;;;;;;6.54;100.00;95640.06;5363072;26;20274;-77
2024/04/18 01:18:29;;;;;;;3.03;1.97;;;;;;;6.59;100.00;95629.91;5363212;26;20322;-76
2024/04/18 01:20:57;;;;;;;3.33;2.00;;;;;;;6.39;100.00;95631.25;5359332;26;20252;-75
2024/04/18 01:23:26;;;;;;;3.27;2.10;;;;;;;6.72;100.00;95638.84;5361906;26;20631;-77
2024/04/18 01:25:54;;;;;;;2.87;2.10;;;;;;;6.53;100.00;95634.03;5362245;26;20270;-75
2024/04/18 01:28:22;;;;;;;5.47;2.47;;;;;;;6.77;100.00;95639.16;5362421;26;20765;-74
2024/04/18 01:30:50;;;;;;;4.63;2.00;;;;;;;6.65;100.00;95634.50;5363129;26;20716;-74
2024/04/18 01:33:16;;;;;;;3.67;2.30;;;;;;;6.65;100.00;95640.53;5362756;26;20328;-73
2024/04/18 01:35:45;;;;;;;3.97;2.20;;;;;;;6.37;100.00;95634.03;5362036;26;20644;-75
2024/04/18 01:38:10;;;;;;;9.03;2.57;;;;;;;6.48;100.00;95635.47;5364069;26;20715;-77
2024/04/18 01:40:38;;;;;;;3.80;2.33;;;;;;;6.49;100.00;95637.97;5363630;26;20826;-77
2024/04/18 01:43:05;;;;;;;5.10;2.97;;;;;;;6.50;100.00;95639.56;5363581;26;20623;-73
2024/04/18 01:45:36;;;;;;;4.43;2.40;;;;;;;6.61;100.00;95634.00;5363914;26;20232;-77
2024/04/18 01:48:02;;;;;;;4.93;2.70;;;;;;;6.52;100.00;95642.00;5363675;26;20292;-75
2024/04/18 01:50:30;;;;;;;4.27;2.43;;;;;;;6.54;100.00;95642.69;5363182;26;20338;-74
2024/04/18 01:52:55;;;;;;;5.30;3.00;;;;;;;6.54;100.00;95650.53;5346805;26;20232;-75
2024/04/18 01:55:24;;;;;;;4.33;2.47;;;;;;;6.22;100.00;95646.19;5363227;26;20232;-77
2024/04/18 01:57:49;;;;;;;3.50;2.07;;;;;;;6.34;100.00;95644.84;5363479;26;20271;-77
2024/04/18 02:00:18;;;;;;;6.87;3.00;;;;;;;6.14;100.00;95643.53;5362076;26;20706;-74
2024/04/18 02:02:46;;;;;;;9.87;3.17;;;;;;;6.22;100.00;95648.78;5359640;26;20321;-75
2024/04/18 02:05:14;;;;;;;6.50;2.80;;;;;;;6.11;100.00;95646.50;5362458;26;20305;-77
2024/04/18 02:07:39;;;;;;;6.67;2.80;;;;;;;6.11;100.00;95649.13;5361492;26;20320;-74
2024/04/18 02:10:08;;;;;;;4.47;2.90;;;;;;;6.01;100.00;95655.50;5361953;26;20609;-74
2024/04/18 02:12:33;;;;;;;11.83;3.23;;;;;;;6.01;100.00;95652.88;5361298;26;20327;-77
2024/04/18 02:15:02;;;;;;;5.83;2.97;;;;;;;6.18;100.00;95644.84;5360797;26;20244;-75
2024/04/18 02:17:27;;;;;;;4.30;2.77;;;;;;;6.14;100.00;95647.97;5361885;26;20328;-76
2024/04/18 02:19:58;;;;;;;6.93;3.47;;;;;;;6.32;100.00;95643.38;5362624;26;20224;-74
2024/04/18 02:22:24;;;;;;;6.47;3.33;;;;;;;6.07;100.00;95655.66;5355782;26;20344;-77
2024/04/18 02:25:06;;;;;;;6.17;3.40;;;;;;;6.57;100.00;95650.19;5330421;26;20743;-74
2024/04/18 02:27:31;;;;;;;6.67;3.63;;;;;;;6.33;100.00;95645.81;5362257;26;20233;-77
2024/04/18 02:30:00;;;;;;;4.63;2.83;;;;;;;6.19;100.00;95641.25;5356209;26;21318;-74
2024/04/18 02:32:26;;;;;;;7.70;3.57;;;;;;;6.37;100.00;95648.94;5360710;26;20340;-73
2024/04/18 02:34:54;;;;;;;5.27;2.83;;;;;;;6.40;100.00;95645.97;5361339;26;20673;-73
2024/04/18 02:37:22;;;;;;;5.80;3.33;;;;;;;6.51;100.00;95650.88;5355599;26;20332;-75
2024/04/18 02:39:50;;;;;;;5.50;3.20;;;;;;;6.27;100.00;95649.09;5362199;26;20236;-76
2024/04/18 02:42:16;;;;;;;5.77;3.53;;;;;;;6.25;100.00;95645.84;5361184;26;20342;-73
2024/04/18 02:44:45;;;;;;;5.27;3.27;;;;;;;6.26;100.00;95641.41;5362503;26;20272;-76
2024/04/18 02:47:10;;;;;;;5.17;2.97;;;;;;;6.27;100.00;95653.50;5361796;26;21442;-72
2024/04/18 02:49:39;;;;;;;5.63;3.43;;;;;;;6.29;100.00;95651.56;5362393;26;20657;-72
2024/04/18 02:52:05;;;;;;;5.63;3.20;;;;;;;6.29;100.00;95652.38;5350861;26;20232;-76
2024/04/18 02:54:35;;;;;;;5.33;3.23;;;;;;;6.31;100.00;95654.81;5348493;26;20278;-76
2024/04/18 02:57:01;;;;;;;5.87;3.93;;;;;;;6.36;100.00;95658.56;5353362;26;20240;-76
2024/04/18 02:59:29;;;;;;;4.90;3.17;;;;;;;6.26;100.00;95651.88;5362753;26;20854;-75
2024/04/18 03:01:55;;;;;;;8.23;3.00;;;;;;;6.02;100.00;95648.47;5353629;26;20240;-75
2024/04/18 03:04:23;;;;;;;6.60;2.83;;;;;;;5.95;100.00;95668.41;5360124;26;20340;-75
2024/04/18 03:06:48;;;;;;;6.30;3.30;;;;;;;5.88;100.00;95652.56;5360308;26;20220;-72
2024/04/18 03:09:18;;;;;;;5.57;2.70;;;;;;;5.86;100.00;95664.16;5359630;26;20236;-75
2024/04/18 03:11:47;;;;;;;4.90;2.97;;;;;;;5.99;100.00;95657.44;5361745;26;20303;-78
2024/04/18 03:14:15;;;;;;;5.07;3.20;;;;;;;5.83;100.00;95661.84;5361052;26;20332;-75
2024/04/18 03:16:40;;;;;;;7.17;3.10;;;;;;;5.93;100.00;95665.97;5361157;26;20232;-72
2024/04/18 03:19:13;;;;;;;5.57;3.13;;;;;;;5.89;100.00;95658.59;5360536;26;20235;-72
2024/04/18 03:21:38;;;;;;;5.23;2.67;;;;;;;5.95;100.00;95657.94;5351978;26;20235;-73
2024/04/18 03:24:17;;;;;;;5.93;2.63;;;;;;;5.97;100.00;95666.44;5361536;26;20332;-74
2024/04/18 03:26:42;;;;;;;5.83;3.57;;;;;;;5.93;100.00;95668.56;5351274;26;20220;-75
2024/04/18 03:29:13;;;;;;;5.50;2.40;;;;;;;5.96;100.00;95672.63;5360403;26;20224;-73
2024/04/18 03:31:40;;;;;;;7.50;2.77;;;;;;;5.57;100.00;95679.44;5351326;26;20232;-74
2024/04/18 03:34:09;;;;;;;5.90;3.27;;;;;;;5.70;100.00;95671.94;5360814;26;20291;-76
2024/04/18 03:36:40;;;;;;;5.80;3.07;;;;;;;5.79;100.00;95673.59;5361192;26;20324;-73
2024/04/18 03:39:09;;;;;;;6.57;3.30;;;;;;;5.77;100.00;95673.78;5360579;26;20232;-74
2024/04/18 03:41:38;;;;;;;5.13;3.00;;;;;;;5.42;100.00;95681.00;5351296;26;20316;-73
2024/04/18 03:44:07;;;;;;;3.93;2.20;;;;;;;5.72;100.00;95672.59;5360734;26;20232;-72
2024/04/18 03:46:38;;;;;;;6.43;3.07;;;;;;;5.68;100.00;95677.31;5359542;26;20223;-73
2024/04/18 03:49:07;;;;;;;4.53;2.73;;;;;;;5.66;100.00;95683.69;5360429;26;20714;-76
2024/04/18 03:51:33;;;;;;;4.77;3.13;;;;;;;5.70;100.00;95685.84;5346400;26;20229;-73
2024/04/18 03:54:01;;;;;;;5.00;2.70;;;;;;;5.53;100.00;95686.75;5352543;26;20305;-72
2024/04/18 03:56:26;;;;;;;6.37;3.00;;;;;;;5.46;100.00;95692.81;5359980;26;20227;-75
2024/04/18 03:58:55;;;;;;;5.43;3.00;;;;;;;5.52;100.00;95692.16;5360474;26;20232;-72
2024/04/18 04:01:20;;;;;;;6.23;3.57;;;;;;;5.35;100.00;95697.50;5345663;26;21462;-73
2024/04/18 04:03:51;;;;;;;4.67;2.93;;;;;;;5.46;100.00;95692.81;5350792;26;20220;-73
2024/04/18 04:06:17;;;;;;;5.33;2.97;;;;;;;5.27;100.00;95692.22;5360205;26;20722;-75
2024/04/18 04:08:45;;;;;;;7.33;3.17;;;;;;;5.40;100.00;95693.44;5351085;26;20340;-76
2024/04/18 04:11:10;;;;;;;6.23;3.40;;;;;;;5.31;100.00;95704.84;5359507;26;20723;-72
2024/04/18 04:13:38;;;;;;;7.03;3.40;;;;;;;5.35;100.00;95700.91;5359041;26;20316;-76
2024/04/18 04:16:04;;;;;;;6.17;3.17;;;;;;;5.33;100.00;95702.84;5360036;26;20228;-76
2024/04/18 04:18:33;;;;;;;5.33;3.60;;;;;;;5.35;100.00;95700.13;5359815;26;20350;-73
2024/04/18 04:21:01;;;;;;;7.60;3.63;;;;;;;5.62;100.00;95698.06;5354037;26;20267;-72
2024/04/18 04:23:29;;;;;;;6.77;3.80;;;;;;;5.48;100.00;95706.50;5330485;26;20665;-73
2024/04/18 04:25:55;;;;;;;6.27;3.37;;;;;;;5.39;100.00;95712.69;5360378;26;20232;-75
2024/04/18 04:28:23;;;;;;;6.70;3.67;;;;;;;5.49;100.00;95722.03;5362698;26;20989;-76
2024/04/18 04:30:48;;;;;;;7.03;3.20;;;;;;;5.50;100.00;95720.25;5352523;26;20696;-73
2024/04/18 04:33:17;;;;;;;9.13;3.40;;;;;;;5.50;100.00;95721.06;5362053;26;20236;-75
2024/04/18 04:35:42;;;;;;;7.00;4.13;;;;;;;5.46;100.00;95718.94;5362764;26;20628;-74
2024/04/18 04:38:13;;;;;;;7.93;3.80;;;;;;;5.72;100.00;95725.69;5362179;26;20232;-72
2024/04/18 04:40:38;;;;;;;7.97;3.30;;;;;;;5.64;100.00;95722.25;5361371;26;20224;-75
2024/04/18 04:43:07;;;;;;;7.23;3.60;;;;;;;5.67;100.00;95732.38;5346446;26;20340;-73
2024/04/18 04:45:32;;;;;;;8.03;3.70;;;;;;;5.65;100.00;95736.94;5361029;26;20332;-75
2024/04/18 04:48:00;;;;;;;4.60;3.07;;;;;;;5.68;100.00;95736.63;5355017;26;20240;-74
2024/04/18 04:50:26;;;;;;;7.47;4.07;;;;;;;5.59;100.00;95734.97;5359655;26;20336;-72
2024/04/18 04:52:54;;;;;;;6.37;3.27;;;;;;;5.64;100.00;95745.78;5328746;26;20715;-72
2024/04/18 04:55:22;;;;;;;5.67;3.40;;;;;;;5.78;100.00;95745.16;5327794;26;20718;-75
2024/04/18 04:57:50;;;;;;;6.80;3.97;;;;;;;5.64;100.00;95749.19;5328099;26;20279;-74
2024/04/18 05:00:16;;;;;;;9.33;4.80;;;;;;;5.64;100.00;95751.81;5344282;26;20225;-75
2024/04/18 05:02:44;;;;;;;10.23;3.93;;;;;;;5.75;100.00;95751.53;5326633;26;20299;-72
2024/04/18 05:05:09;;;;;;;10.17;4.53;;;;;;;5.80;100.00;95761.50;5327973;26;20711;-73
2024/04/18 05:07:37;;;;;;;7.27;4.10;;;;;;;5.90;100.00;95764.81;5360265;26;20318;-72
2024/04/18 05:10:05;;;;;;;8.83;4.17;;;;;;;6.20;100.00;95759.81;5360616;26;20526;-74
2024/04/18 05:12:36;;;;;;;6.23;3.97;;;;;;;6.13;100.00;95762.22;5360857;26;20232;-74
2024/04/18 05:15:02;;;;;;;11.83;5.07;;;;;;;6.04;100.00;95762.38;5361277;26;20227;-74
2024/04/18 05:17:30;;;;;;;12.93;4.47;;;;;;;6.15;100.00;95775.97;5329913;26;20233;-75
2024/04/18 05:19:56;;;;;;;6.77;4.10;;;;;;;6.03;100.00;95781.66;5355309;26;20670;-75
2024/04/18 05:22:24;;;;;;;8.57;4.20;;;;;;;6.26;100.00;95778.28;5327835;26;20240;-76
2024/04/18 05:24:49;;;;;;;11.97;6.00;;;;;;;6.27;100.00;95779.09;5329908;26;20914;-76
2024/04/18 05:27:17;;;;;;;9.90;5.37;;;;;;;6.14;100.00;95779.56;5328386;26;20237;-74
2024/04/18 05:32:32;;;;;;;8.93;4.73;;;;;;;6.13;100.00;95785.75;5330164;26;20333;-72
2024/04/18 05:35:00;;;;;;;8.20;4.13;;;;;;;6.14;100.00;95790.03;5352338;26;20228;-75
2024/04/18 05:37:29;;;;;;;6.90;3.60;;;;;;;6.18;100.00;95786.09;5332968;26;20229;-75
2024/04/18 05:39:57;;;;;;;5.97;3.57;;;;;;;5.97;100.00;95789.31;5327494;26;20337;-72
2024/04/18 05:42:25;;;;;;;7.50;3.67;;;;;;;6.05;100.00;95788.38;5327668;26;20349;-75
2024/04/18 05:44:55;;;;;;;6.70;3.77;;;;;;;6.35;100.00;95797.41;5327260;26;20240;-72
2024/04/18 05:47:24;;;;;;;14.33;4.20;;;;;;;6.26;100.00;95793.97;5327724;26;20610;-75
2024/04/18 05:49:52;;;;;;;8.47;4.57;;;;;;;6.34;100.00;95806.22;5345593;26;20232;-72
2024/04/18 05:52:20;;;;;;;7.83;3.83;;;;;;;6.45;100.00;95796.25;5346059;26;20344;-74
2024/04/18 05:54:48;;;;;;;7.20;3.63;;;;;;;6.32;100.00;95808.22;5339155;26;20241;-73
2024/04/18 05:57:16;;;;;;;6.03;4.00;;;;;;;6.25;100.00;95809.81;5342450;26;20862;-74
2024/04/18 05:59:44;;;;;;;8.53;4.00;;;;;;;6.20;100.00;95814.75;5345508;26;20262;-71
2024/04/18 06:02:15;;;;;;;7.33;3.87;;;;;;;6.39;100.00;95817.88;5345738;26;20228;-73
2024/04/18 06:04:43;;;;;;;5.43;3.60;;;;;;;6.25;100.00;95815.03;5342934;26;20325;-72
2024/04/18 06:07:11;;;;;;;6.03;3.13;;;;;;;6.25;100.00;95818.50;5341231;26;20228;-75
2024/04/18 06:09:39;;;;;;;7.27;3.73;;;;;;;6.26;100.00;95827.16;5343402;26;20232;-75
2024/04/18 06:12:08;;;;;;;4.77;2.80;;;;;;;6.43;100.00;95827.03;5341111;26;20244;-75
2024/04/18 06:14:36;;;;;;;4.57;2.97;;;;;;;6.56;100.00;95827.38;5340047;26;20233;-76
2024/04/18 06:17:04;;;;;;;6.73;3.20;;;;;;;6.69;100.00;95822.47;5339970;26;20227;-73
2024/04/18 06:19:35;;;;;;;5.87;3.30;;;;;;;7.00;100.00;95820.81;5340725;26;20228;-73
2024/04/18 06:22:04;;;;;;;7.23;3.40;;;;;;;6.95;100.00;95820.47;5340532;26;20327;-71
2024/04/18 06:24:32;;;;;;;5.17;3.17;;;;;;;7.03;100.00;95823.91;5345426;26;20229;-75
2024/04/18 06:27:01;;;;;;;6.00;3.40;;;;;;;7.11;100.00;95823.09;5346937;26;20341;-75
2024/04/18 06:29:29;;;;;;;5.50;3.40;;;;;;;7.30;100.00;95828.78;5340056;26;20233;-72
2024/04/18 06:31:57;;;;;;;6.07;3.43;;;;;;;7.12;100.00;95829.97;5336390;26;20233;-73
2024/04/18 06:34:25;;;;;;;6.17;3.33;;;;;;;7.06;100.00;95834.06;5343888;26;20651;-75
2024/04/18 06:36:56;;;;;;;5.73;3.30;;;;;;;7.16;100.00;95839.94;5338861;26;20359;-72
2024/04/18 06:39:24;;;;;;;5.23;2.73;;;;;;;6.83;100.00;95840.13;5342686;26;20229;-75
2024/04/18 06:41:53;;;;;;;3.47;2.53;;;;;;;7.08;100.00;95837.34;5342541;26;20238;-73
2024/04/18 06:44:21;;;;;;;3.37;2.60;;;;;;;6.97;100.00;95847.34;5347856;26;20336;-72
2024/04/18 06:46:50;;;;;;;4.30;2.60;;;;;;;7.11;100.00;95842.25;5344062;26;20232;-75
2024/04/18 06:49:18;;;;;;;3.53;2.50;;;;;;;7.29;100.00;95848.94;5339224;26;20229;-74
2024/04/18 06:51:46;;;;;;;2.40;1.90;;;;;;;7.33;100.00;95858.09;5346657;26;20340;-73
2024/04/18 06:54:14;;;;;;;3.93;2.23;;;;;;;7.55;100.00;95853.97;5346775;26;20221;-72
2024/04/18 06:56:42;;;;;;;6.17;2.30;;;;;;;7.48;100.00;95856.41;5326174;26;20233;-73
2024/04/18 06:59:11;;;;;;;2.83;1.97;;;;;;;7.80;100.00;95856.31;5348932;26;20220;-76
2024/04/18 07:01:39;;;;;;;2.77;1.70;;;;;;;7.85;100.00;95854.00;5328045;26;20314;-76
2024/04/18 07:04:07;;;;;;;3.97;2.20;;;;;;;7.78;100.00;95860.09;5326936;26;20233;-75
2024/04/18 07:06:35;;;;;;;4.33;2.33;;;;;;;7.74;100.00;95859.66;5338848;26;21474;-75
2024/04/18 07:09:03;;;;;;;4.53;2.30;;;;;;;8.19;100.00;95867.69;5330567;26;20241;-73
2024/04/18 07:11:34;;;;;;;4.83;2.57;;;;;;;8.10;100.00;95866.06;5327766;26;20241;-76
2024/04/18 07:14:02;;;;;;;7.87;2.80;;;;;;;7.71;100.00;95867.81;5341004;26;20310;-74
2024/04/18 07:16:31;;;;;;;6.33;3.07;;;;;;;7.65;100.00;95872.94;5344647;26;20275;-75
2024/04/18 07:18:59;;;;;;;4.83;2.60;;;;;;;7.83;100.00;95863.88;5348025;26;20228;-76
2024/04/18 07:21:28;;;;;;;4.60;2.50;;;;;;;7.64;100.00;95869.50;5337335;26;20875;-71
2024/04/18 07:23:56;;;;;;;3.60;2.90;;;;;;;7.82;100.00;95880.59;5347188;26;20224;-73
2024/04/18 07:26:24;;;;;;;10.83;3.00;;;;;;;7.95;100.00;95875.63;5346034;26;20224;-76
2024/04/18 07:28:54;;;;;;;5.43;2.97;;;;;;;8.31;100.00;95876.81;5348849;26;20221;-71
2024/04/18 07:31:23;;;;;;;4.33;3.13;;;;;;;8.40;100.00;95873.16;5333718;26;20316;-75
2024/04/18 07:33:51;;;;;;;7.10;3.37;;;;;;;7.96;100.00;95879.91;5337953;26;20240;-75
2024/04/18 07:36:21;;;;;;;6.67;3.33;;;;;;;8.53;100.00;95880.28;5342238;26;20354;-74
2024/04/18 07:38:49;;;;;;;6.40;2.90;;;;;;;8.18;100.00;95879.97;5344161;26;20307;-75
2024/04/18 07:41:18;;;;;;;5.73;3.30;;;;;;;8.57;100.00;95886.03;5355898;26;20365;-76
2024/04/18 07:43:46;;;;;;;5.57;3.07;;;;;;;8.80;100.00;95881.63;5343118;26;20232;-72
2024/04/18 07:46:18;;;;;;;3.50;2.57;;;;;;;8.71;100.00;95896.59;5341707;26;20297;-76
2024/04/18 07:48:46;;;;;;;3.93;2.40;;;;;;;8.11;100.00;95899.19;5341103;26;20228;-74
2024/04/18 07:51:14;;;;;;;4.73;2.63;;;;;;;7.46;100.00;95897.72;5342148;26;20279;-73
2024/04/18 07:53:42;;;;;;;6.77;2.97;;;;;;;7.98;100.00;95897.09;5329286;26;20882;-75
2024/04/18 07:56:11;;;;;;;4.87;2.90;;;;;;;7.24;100.00;95905.44;5327483;26;20337;-74
2024/04/18 07:58:39;;;;;;;3.80;2.40;;;;;;;7.04;100.00;95898.91;5359229;26;20350;-75
2024/04/18 08:01:11;;;;;;;4.87;3.10;;;;;;;7.21;100.00;95897.91;5363791;26;20681;-74
2024/04/18 08:03:42;;;;;;;5.17;3.00;;;;;;;7.68;100.00;95904.88;5348999;26;20290;-74
2024/04/18 08:06:10;;;;;;;5.40;3.10;;;;;;;7.55;100.00;95901.16;5342048;26;20280;-74
2024/04/18 08:08:38;;;;;;;3.77;2.67;;;;;;;7.55;100.00;95912.47;5346208;26;20295;-75
2024/04/18 08:11:09;;;;;;;6.63;3.13;;;;;;;7.49;100.00;95907.88;5338663;26;20303;-73
2024/04/18 08:13:38;;;;;;;6.17;3.33;;;;;;;7.64;100.00;95914.06;5337851;26;21324;-76
2024/04/18 08:16:07;;;;;;;4.97;2.60;;;;;;;7.92;100.00;95917.94;5347674;26;20784;-73
2024/04/18 08:18:36;;;;;;;3.57;2.50;;;;;;;8.12;100.00;95916.56;5341486;26;20386;-72
2024/04/18 08:21:06;;;;;;;3.47;2.50;;;;;;;8.12;100.00;95911.31;5330966;26;20236;-75
2024/04/18 08:23:35;;;;;;;5.70;2.53;;;;;;;7.97;100.00;95918.25;5330611;26;20296;-74
2024/04/18 08:26:03;;;;;;;3.33;2.53;;;;;;;8.05;100.00;95928.72;5364754;26;20232;-72
2024/04/18 08:28:31;;;;;;;3.77;2.23;;;;;;;7.84;100.00;95933.72;5359806;26;20224;-74
2024/04/18 08:31:00;;;;;;;5.23;2.83;;;;;;;7.99;100.00;95930.22;5342807;26;20309;-73
2024/04/18 08:33:28;;;;;;;4.47;2.60;;;;;;;8.26;100.00;95931.63;5343839;26;20350;-74
2024/04/18 08:35:56;;;;;;;3.63;2.53;;;;;;;8.41;100.00;95935.19;5346167;26;20228;-76
2024/04/18 08:38:27;;;;;;;4.03;2.37;;;;;;;8.67;100.00;95939.16;5344582;26;20293;-72
2024/04/18 08:40:53;;;;;;;4.00;2.03;;;;;;;8.58;100.00;95945.44;5343609;26;20292;-74
2024/04/18 08:43:21;;;;;;;4.20;2.40;;;;;;;8.48;100.00;95940.38;5332744;26;20880;-74
2024/04/18 08:45:50;;;;;;;3.87;2.43;;;;;;;8.42;100.00;95939.44;5345355;26;20233;-76
2024/04/18 08:48:20;;;;;;;3.47;2.23;;;;;;;8.59;100.00;95947.06;5345142;26;20284;-76
2024/04/18 08:50:48;;;;;;;4.63;2.57;;;;;;;8.52;100.00;95944.31;5337209;26;20288;-72
2024/04/18 08:53:16;;;;;;;3.73;2.37;;;;;;;8.73;100.00;95944.53;5344228;26;20408;-76
2024/04/18 08:55:51;;;;;;;4.07;2.70;;;;;;;8.27;100.00;95947.19;5351147;26;21664;-76
2024/04/18 08:58:19;;;;;;;3.30;2.20;;;;;;;8.31;100.00;95947.69;5349619;26;20262;-76
2024/04/18 09:00:48;;;;;;;4.87;2.50;;;;;;;8.54;100.00;95950.22;5345231;26;20285;-74
2024/04/18 09:03:16;;;;;;;6.17;2.87;;;;;;;8.59;100.00;95955.78;5337881;26;20228;-73
2024/04/18 09:05:45;;;;;;;5.20;2.63;;;;;;;8.51;100.00;95950.56;5338639;26;20284;-75
2024/04/18 09:08:14;;;;;;;4.13;2.33;;;;;;;8.36;100.00;95958.50;5341563;26;20363;-76
2024/04/18 09:10:42;;;;;;;5.27;2.73;;;;;;;8.23;100.00;95960.84;5343021;26;20265;-73
2024/04/18 09:13:13;;;;;;;3.87;2.40;;;;;;;8.47;100.00;95963.38;5352496;26;20287;-74
2024/04/18 09:15:42;;;;;;;4.77;2.70;;;;;;;8.11;100.00;95964.78;5355404;26;20327;-73
2024/04/18 09:18:10;;;;;;;5.00;2.80;;;;;;;8.41;100.00;95969.31;5329259;26;20271;-76
2024/04/18 09:20:39;;;;;;;4.57;2.70;;;;;;;8.44;100.00;95968.97;5335700;26;20344;-72
2024/04/18 09:23:08;;;;;;;6.90;2.53;;;;;;;8.37;100.00;95974.06;5337800;26;20241;-75
2024/04/18 09:25:36;;;;;;;4.37;2.27;;;;;;;8.43;100.00;95972.59;5325991;26;20308;-72
2024/04/18 09:28:05;;;;;;;4.40;2.40;;;;;;;8.58;100.00;95976.97;5348495;26;20710;-73
2024/04/18 09:30:38;;;;;;;3.57;2.27;;;;;;;8.72;100.00;95969.16;5359639;26;20271;-73
2024/04/18 09:33:06;;;;;;;4.33;2.40;;;;;;;8.87;100.00;95972.69;5359668;26;20340;-76
2024/04/18 09:35:36;;;;;;;3.03;1.97;;;;;;;8.82;100.00;95967.16;5360639;26;20292;-73
2024/04/18 09:38:04;;;;;;;4.37;2.40;;;;;;;9.22;100.00;95972.13;5353284;26;20351;-72
2024/04/18 09:40:35;;;;;;;3.10;2.13;;;;;;;9.77;100.00;95968.22;5350819;26;20283;-74
2024/04/18 09:43:16;;;;;;;3.40;2.10;;;;;;;10.19;100.00;95968.50;5335394;26;20369;-75
2024/04/18 09:45:52;;;;;;;4.60;2.43;;;;;;;10.03;96.41;95973.91;5328603;26;20867;-75
2024/04/18 09:48:21;;;;;;;5.23;2.20;;;;;;;10.15;95.96;95972.50;5349540;26;20221;-72
2024/04/18 09:50:51;;;;;;;3.30;2.17;;;;;;;10.48;95.00;95974.59;5328003;26;20358;-75
2024/04/18 09:53:21;;;;;;;3.80;1.87;;;;;;;10.99;91.08;95979.69;5332812;26;20686;-73
2024/04/18 09:55:50;;;;;;;2.77;1.73;;;;;;;10.64;89.40;95979.66;5352194;26;20296;-73
2024/04/18 09:58:20;;;;;;;3.80;1.97;;;;;;;10.54;88.46;95979.13;5332197;26;20300;-73
2024/04/18 10:00:51;;;;;;;3.73;2.00;;;;;;;11.08;91.27;95979.38;5341311;26;20359;-72
2024/04/18 10:03:20;;;;;;;5.03;2.57;;;;;;;10.92;94.53;95985.88;5326353;26;21482;-73
2024/04/18 10:05:51;;;;;;;3.20;2.17;;;;;;;10.92;92.13;95978.81;5341017;26;20243;-76
2024/04/18 10:08:21;;;;;;;3.90;2.37;;;;;;;11.00;95.20;95987.41;5340340;26;20232;-76
2024/04/18 10:10:50;;;;;;;3.60;2.23;;;;;;;10.42;98.76;95988.47;5337299;26;20228;-76
2024/04/18 10:13:19;;;;;;;3.43;2.00;;;;;;;10.26;100.00;95996.56;5333867;26;21346;-73
2024/04/18 10:15:47;;;;;;;3.63;1.87;;;;;;;9.53;97.50;96002.63;5344827;26;20291;-74
2024/04/18 10:18:19;;;;;;;2.97;2.07;;;;;;;10.08;100.00;96005.78;5358935;26;20311;-72
2024/04/18 10:20:48;;;;;;;2.10;1.80;;;;;;;10.00;100.00;96004.06;5355083;26;20701;-75
2024/04/18 10:23:16;;;;;;;3.07;2.00;;;;;;;10.18;100.00;96003.72;5343356;26;20359;-75
2024/04/18 10:25:45;;;;;;;4.07;2.10;;;;;;;10.08;100.00;96009.25;5352038;26;20287;-72
2024/04/18 10:28:23;;;;;;;3.20;1.90;;;;;;;9.98;100.00;96013.94;5343350;26;20332;-75
2024/04/18 10:30:51;;;;;;;2.80;1.83;;;;;;;9.82;96.98;96016.69;5343573;26;20290;-75
2024/04/18 10:33:29;;;;;;;2.73;1.80;;;;;;;9.83;96.85;96020.16;5329367;26;20333;-75
2024/04/18 10:35:57;;;;;;;4.87;1.97;;;;;;;9.55;97.28;96019.06;5336209;26;20344;-75
2024/04/18 10:38:27;;;;;;;3.70;2.50;;;;;;;9.86;96.77;96018.00;5335328;26;20265;-72
2024/04/18 10:40:59;;;;;;;2.73;1.87;;;;;;;10.11;95.86;96013.34;5358427;26;20302;-73
2024/04/18 10:43:27;;;;;;;2.70;1.73;;;;;;;10.06;90.44;96027.03;5332926;26;20834;-72
2024/04/18 10:45:56;;;;;;;2.80;1.93;;;;;;;10.06;92.92;96027.03;5340722;26;20236;-74
2024/04/18 10:48:27;;;;;;;3.57;2.10;;;;;;;10.21;94.91;96014.72;5341338;26;20221;-75
2024/04/18 10:50:55;;;;;;;3.33;2.27;;;;;;;10.26;89.20;96017.63;5340918;26;20296;-71
2024/04/18 10:53:24;;;;;;;4.07;2.17;;;;;;;10.09;91.27;96020.59;5352472;26;20239;-74
2024/04/18 10:55:52;;;;;;;4.03;2.00;;;;;;;10.28;90.67;96014.81;5345895;26;20295;-75
2024/04/18 10:58:20;;;;;;;3.90;2.00;;;;;;;10.55;95.33;96012.34;5361180;26;20291;-74
2024/04/18 11:00:49;;;;;;;3.00;2.10;;;;;;;10.88;95.57;96017.06;5346821;26;20285;-72
2024/04/18 11:03:17;;;;;;;4.67;2.40;;;;;;;10.52;87.62;96018.00;5359263;26;20287;-74
2024/04/18 11:05:48;;;;;;;4.73;2.33;;;;;;;10.67;84.79;96013.56;5346948;26;20700;-76
2024/04/18 11:08:16;;;;;;;3.00;2.17;;;;;;;10.23;86.72;96019.81;5360575;26;20224;-76
2024/04/18 11:10:45;;;;;;;4.27;2.30;;;;;;;10.82;80.60;96014.34;5360998;26;20402;-75
2024/04/18 11:13:15;;;;;;;4.17;2.00;;;;;;;11.20;80.36;96014.81;5360860;26;20348;-73
2024/04/18 11:15:44;;;;;;;2.20;1.53;;;;;;;11.54;71.81;96011.56;5360263;26;21497;-72
2024/04/18 11:18:12;;;;;;;3.73;1.70;;;;;;;11.83;65.86;96007.78;5361449;26;20232;-75
2024/04/18 11:20:40;;;;;;;2.67;1.63;;;;;;;12.58;70.73;96006.91;5358983;26;20288;-76
2024/04/18 11:23:11;;;;;;;2.43;1.73;;;;;;;12.98;62.84;96000.84;5339162;26;20292;-75
2024/04/18 11:25:41;;;;;;;4.10;1.40;;;;;;;12.97;66.86;96001.84;5341761;26;20279;-75
2024/04/18 11:28:10;;;;;;;2.90;1.27;;;;;;;11.74;62.14;96008.09;5342018;26;20239;-74
2024/04/18 11:30:42;;;;;;;4.27;1.60;;;;;;;11.84;69.00;96012.06;5359708;26;20227;-73
2024/04/18 11:33:08;;;;;;;2.43;1.57;;;;;;;11.62;67.39;96017.50;5335917;26;20355;-76
2024/04/18 11:35:37;;;;;;;4.13;2.13;;;;;;;10.83;80.44;96016.78;5325218;26;20237;-73
2024/04/18 11:38:08;;;;;;;3.93;1.80;;;;;;;10.48;89.90;96019.38;5335246;26;20403;-73
2024/04/18 11:44:13;;;;;;;4.30;1.80;;;;;;;10.73;90.74;96029.44;5413963;26;20673;-75
2024/04/18 11:46:42;;;;;;;2.40;1.73;;;;;;;10.96;87.74;96020.41;5413306;26;20226;-76
2024/04/18 11:49:10;;;;;;;2.63;2.00;;;;;;;11.10;86.42;96027.47;5414356;26;20342;-75